Terminal Aerodrome Forecast
Issued by NWS

Home | Current Version | Previous Version | Text Only | Print | Product List | Glossary On
Versions: 1 2 3 4 5 6 7 8 9 10 11 12 13 14 15 16 17 18 19 20 21 22 23 24 25 26
392
FTUS43 KGRR 120239 AAA
TAFAZO
TAF AMD
KAZO 120239Z 1203/1224 32005KT 4SM -SN BR OVC008
      TEMPO 1203/1207 SCT008 OVC022
     FM120700 32015G25KT 6SM -SN OVC030
     FM121000 32015G25KT P6SM VCSH BKN035=

USA.gov is the U.S. government's official web portal to all federal, state and local government web resources and services.